Fairbanks, AK

7:24 PM AKST on February 05, 2016 (GMT -0900)
KAKFAIRB24 | | Change Station
CLOSE
Current Station
Personal Weather Station
Location: Fairbanks, AK
Elevation: 540 ft
Nearby Weather Stations

Elev 540 ft 64.81 °N, 147.70 °W | Updated 4 minutes ago

Scattered Clouds
Scattered Clouds
7.2 °F
Feels Like 7 °F
N
0.0
Wind Variable Wind from ENE
Gusts 0.0 mph

Today
High -- | Low -- °F
--% Chance of Precip.
Yesterday
High -- | Low -- °F
Precip. -- in
Pressure 29.36 in
Visibility 9.0 miles
Clouds Scattered Clouds 14000 ft
Scattered Clouds 17000 ft
Windchill 7 °F
Dew Point 3 °F
Humidity 83%
Rainfall 0.00 in
Snow Depth Not available.
9:24 AM 4:46 PM
Waning Crescent, 7% visible
METAR PAFB 060358Z 00000KT 9SM SCT140 SCT170 M16/M17 A2932 RMK AO2A SLP941 T11571175 $
Pressure 29.36 in
Visibility 9.0 miles
Clouds Scattered Clouds 14000 ft
Scattered Clouds 17000 ft
Windchill 7 °F
Dew Point 3 °F
Humidity 83%
Rainfall 0.00 in
Snow Depth Not available.
9:24 AM 4:46 PM
Waning Crescent, 7% visible
METAR PAFB 060358Z 00000KT 9SM SCT140 SCT170 M16/M17 A2932 RMK AO2A SLP941 T11571175 $

10-Day Weather Forecast

Almanac

Astronomy

Feb. 05, 2016 Rise Set
Actual Time
Civil Twilight
Nautical Twilight
Astronomical Twilight
Moon
Length of Visible Light
Length of Day
Tomorrow will be .
, % of the Moon is Illuminated

Today's Extremes

State Highs State Lows

Community

WunderPhotos

Upload Photos

1,890,917 photos uploaded!

WunderBlog® & News

Nearby

Air Quality

  Air Quality AQ Index Pollutant
Not available.

Snow Depth

Station Depth Elevation

Earthquake Activity

City Distance Mag. Time & Date
Minimum magnitude displayed is 2.5.

Coastal Water Temperatures

Place Temperature

Stations

Nearby Weather Stations

Station Location Temp. Windchill Dew Point Humidity Wind Precip. Elev Updated Type
                   

Watches & Warnings

There are currently no watches in effect.